Time,TemperatureF,DewpointF,PressureIn,WindDirection,WindDirectionDegrees,WindSpeedMPH,WindSpeedGustMPH,Humidity,HourlyPrecipIn,Conditions,Clouds,dailyrainin,SoftwareType,DateUTC
2013-10-16 00:00:00,57.3,53.2,30.12,East,90,0.0,1.0,86,0.00,,,0.00,VWS V14.01,2013-10-16 04:00:00,
2013-10-16 00:10:00,57.2,52.7,30.12,East,90,0.0,0.0,85,0.00,,,0.00,VWS V14.01,2013-10-16 04:10:00,
2013-10-16 00:20:00,57.2,52.7,30.12,East,90,0.0,0.0,85,0.00,,,0.00,VWS V14.01,2013-10-16 04:20:00,
2013-10-16 00:30:00,57.2,52.7,30.12,East,90,0.0,0.0,85,0.00,,,0.00,VWS V14.01,2013-10-16 04:30:00,
2013-10-16 00:40:00,57.2,52.7,30.11,East,90,0.0,1.0,85,0.00,,,0.00,VWS V14.01,2013-10-16 04:40:00,
2013-10-16 00:50:00,57.3,52.8,30.11,East,90,0.0,0.0,85,0.00,,,0.00,VWS V14.01,2013-10-16 04:50:00,
2013-10-16 01:00:00,57.5,53.3,30.10,East,90,0.0,0.0,86,0.00,,,0.00,VWS V14.01,2013-10-16 05:00:00,
2013-10-16 01:10:00,57.6,53.5,30.10,East,90,0.0,0.0,86,0.00,,,0.00,VWS V14.01,2013-10-16 05:10:00,
2013-10-16 01:20:00,57.6,53.5,30.10,East,90,0.0,0.0,86,0.00,,,0.00,VWS V14.01,2013-10-16 05:20:00,
2013-10-16 01:30:00,57.8,53.7,30.10,East,90,0.0,1.0,86,0.00,,,0.00,VWS V14.01,2013-10-16 05:30:00,
2013-10-16 01:40:00,57.8,53.7,30.09,East,90,0.0,0.0,86,0.00,,,0.00,VWS V14.01,2013-10-16 05:40:00,
2013-10-16 01:50:00,58.0,54.2,30.09,East,90,0.0,0.0,87,0.00,,,0.00,VWS V14.01,2013-10-16 05:50:00,
2013-10-16 02:00:00,58.0,54.2,30.09,East,90,0.0,1.0,87,0.00,,,0.00,VWS V14.01,2013-10-16 06:00:00,
2013-10-16 02:10:00,58.1,54.6,30.09,East,90,0.0,0.0,88,0.00,,,0.00,VWS V14.01,2013-10-16 06:10:00,
2013-10-16 02:20:00,58.1,54.6,30.08,East,90,0.0,4.0,88,0.00,,,0.00,VWS V14.01,2013-10-16 06:20:00,
2013-10-16 02:30:00,58.1,54.6,30.08,East,90,0.0,1.0,88,0.00,,,0.00,VWS V14.01,2013-10-16 06:30:00,
2013-10-16 02:40:00,58.1,54.6,30.07,East,90,0.0,0.0,88,0.00,,,0.00,VWS V14.01,2013-10-16 06:40:00,
2013-10-16 02:50:00,58.0,54.5,30.07,East,90,0.0,1.0,88,0.00,,,0.00,VWS V14.01,2013-10-16 06:50:00,
2013-10-16 03:00:00,57.8,54.3,30.07,East,90,0.0,1.0,88,0.00,,,0.00,VWS V14.01,2013-10-16 07:00:00,
2013-10-16 03:10:00,58.0,54.8,30.06,East,90,0.0,1.0,89,0.00,,,0.00,VWS V14.01,2013-10-16 07:10:00,
2013-10-16 03:20:00,58.3,55.4,30.06,East,90,0.0,1.0,90,0.00,,,0.00,VWS V14.01,2013-10-16 07:20:00,
2013-10-16 03:30:00,58.4,55.5,30.06,East,90,0.0,1.0,90,0.00,,,0.00,VWS V14.01,2013-10-16 07:30:00,
2013-10-16 03:40:00,58.6,55.7,30.07,East,90,0.0,1.0,90,0.00,,,0.00,VWS V14.01,2013-10-16 07:40:00,
2013-10-16 03:50:00,58.6,55.7,30.07,East,90,0.0,1.0,90,0.00,,,0.00,VWS V14.01,2013-10-16 07:50:00,
2013-10-16 04:00:00,58.6,56.0,30.07,East,90,0.0,2.0,91,0.00,,,0.00,VWS V14.01,2013-10-16 08:00:00,
2013-10-16 04:10:00,58.6,56.0,30.07,East,90,0.0,2.0,91,0.00,,,0.00,VWS V14.01,2013-10-16 08:10:00,
2013-10-16 04:20:00,58.6,56.0,30.07,East,90,0.0,0.0,91,0.00,,,0.00,VWS V14.01,2013-10-16 08:20:00,
2013-10-16 04:30:00,58.6,55.7,30.08,East,90,0.0,0.0,90,0.00,,,0.00,VWS V14.01,2013-10-16 08:30:00,
2013-10-16 04:40:00,58.4,55.5,30.07,East,90,0.0,0.0,90,0.00,,,0.00,VWS V14.01,2013-10-16 08:40:00,
2013-10-16 04:50:00,58.4,55.5,30.07,East,90,0.0,0.0,90,0.00,,,0.00,VWS V14.01,2013-10-16 08:50:00,
2013-10-16 05:00:00,58.4,55.8,30.06,East,90,0.0,1.0,91,0.00,,,0.00,VWS V14.01,2013-10-16 09:00:00,
2013-10-16 05:10:00,58.4,55.5,30.05,East,90,0.0,0.0,90,0.00,,,0.00,VWS V14.01,2013-10-16 09:10:00,
2013-10-16 05:20:00,58.3,55.4,30.05,East,90,0.0,2.0,90,0.00,,,0.00,VWS V14.01,2013-10-16 09:20:00,
2013-10-16 05:30:00,58.1,55.2,30.06,East,90,0.0,1.0,90,0.00,,,0.00,VWS V14.01,2013-10-16 09:30:00,
2013-10-16 05:40:00,58.0,55.1,30.05,East,90,0.0,0.0,90,0.00,,,0.00,VWS V14.01,2013-10-16 09:40:00,
2013-10-16 05:50:00,57.8,54.9,30.05,East,90,0.0,0.0,90,0.00,,,0.00,VWS V14.01,2013-10-16 09:50:00,
2013-10-16 06:00:00,57.8,54.9,30.05,East,90,0.0,0.0,90,0.00,,,0.00,VWS V14.01,2013-10-16 10:00:00,
2013-10-16 06:10:00,58.0,55.4,30.05,East,90,0.0,0.0,91,0.00,,,0.00,VWS V14.01,2013-10-16 10:10:00,
2013-10-16 06:20:00,58.3,56.0,30.05,East,90,0.0,2.0,92,0.00,,,0.00,VWS V14.01,2013-10-16 10:20:00,
2013-10-16 06:30:00,58.6,56.3,30.06,East,90,0.0,1.0,92,0.00,,,0.00,VWS V14.01,2013-10-16 10:30:00,
2013-10-16 06:40:00,58.6,56.3,30.06,East,90,0.0,2.0,92,0.00,,,0.00,VWS V14.01,2013-10-16 10:40:00,
2013-10-16 06:50:00,58.6,56.3,30.07,East,90,0.0,1.0,92,0.00,,,0.00,VWS V14.01,2013-10-16 10:50:00,
2013-10-16 07:00:00,58.6,56.6,30.07,East,90,0.0,1.0,93,0.00,,,0.00,VWS V14.01,2013-10-16 11:00:00,
2013-10-16 07:10:00,58.4,56.4,30.06,East,90,0.0,2.0,93,0.00,,,0.00,VWS V14.01,2013-10-16 11:10:00,
2013-10-16 07:20:00,58.4,56.4,30.06,East,90,0.0,1.0,93,0.00,,,0.00,VWS V14.01,2013-10-16 11:20:00,
2013-10-16 07:30:00,58.3,56.3,30.06,East,90,0.0,2.0,93,0.00,,,0.00,VWS V14.01,2013-10-16 11:30:00,
2013-10-16 07:40:00,58.1,56.4,30.06,East,90,0.0,1.0,94,0.00,,,0.00,VWS V14.01,2013-10-16 11:40:00,
2013-10-16 07:50:00,58.1,56.4,30.06,East,90,0.0,1.0,94,0.00,,,0.00,VWS V14.01,2013-10-16 11:50:00,
2013-10-16 08:00:00,58.0,56.3,30.06,East,90,0.0,1.0,94,0.00,,,0.00,VWS V14.01,2013-10-16 12:00:00,
2013-10-16 08:10:00,57.8,56.1,30.06,East,90,0.0,1.0,94,0.00,,,0.00,VWS V14.01,2013-10-16 12:10:00,
2013-10-16 08:20:00,57.8,56.1,30.06,East,90,0.0,1.0,94,0.00,,,0.00,VWS V14.01,2013-10-16 12:20:00,
2013-10-16 08:30:00,57.8,56.1,30.06,East,90,0.0,2.0,94,0.00,,,0.00,VWS V14.01,2013-10-16 12:30:00,
2013-10-16 08:40:00,57.8,56.1,30.05,East,90,0.0,1.0,94,0.00,,,0.00,VWS V14.01,2013-10-16 12:40:00,
2013-10-16 08:50:00,58.0,56.3,30.05,East,90,0.0,2.0,94,0.00,,,0.00,VWS V14.01,2013-10-16 12:50:00,
2013-10-16 09:00:00,58.1,56.4,30.05,ESE,112,0.0,1.0,94,0.00,,,0.00,VWS V14.01,2013-10-16 13:00:00,
2013-10-16 09:10:00,58.4,56.7,30.05,ESE,112,0.0,2.0,94,0.00,,,0.00,VWS V14.01,2013-10-16 13:10:00,
2013-10-16 09:20:00,58.7,57.0,30.04,ESE,112,0.0,1.0,94,0.00,,,0.00,VWS V14.01,2013-10-16 13:20:00,
2013-10-16 09:30:00,59.0,57.3,30.04,ESE,112,0.0,2.0,94,0.00,,,0.00,VWS V14.01,2013-10-16 13:30:00,
2013-10-16 09:40:00,59.2,57.5,30.04,SE,135,0.0,5.0,94,0.00,,,0.00,VWS V14.01,2013-10-16 13:40:00,
2013-10-16 09:50:00,59.3,57.3,30.04,SE,135,0.0,2.0,93,0.00,,,0.00,VWS V14.01,2013-10-16 13:50:00,
2013-10-16 10:00:00,59.5,57.5,30.04,SE,135,0.0,2.0,93,0.00,,,0.00,VWS V14.01,2013-10-16 14:00:00,
2013-10-16 10:10:00,59.6,57.6,30.04,SE,135,0.0,4.0,93,0.00,,,0.00,VWS V14.01,2013-10-16 14:10:00,
2013-10-16 10:20:00,60.1,58.4,30.04,SE,135,0.0,4.0,94,0.00,,,0.00,VWS V14.01,2013-10-16 14:20:00,
2013-10-16 10:30:00,61.2,58.9,30.04,South,180,0.0,5.0,92,0.00,,,0.00,VWS V14.01,2013-10-16 14:30:00,
2013-10-16 10:40:00,61.8,59.2,30.04,South,180,0.0,1.0,91,0.00,,,0.00,VWS V14.01,2013-10-16 14:40:00,
2013-10-16 10:50:00,61.8,58.8,30.03,SE,135,0.0,2.0,90,0.00,,,0.00,VWS V14.01,2013-10-16 14:50:00,
2013-10-16 11:00:00,61.8,58.8,30.03,ESE,112,0.0,2.0,90,0.00,,,0.00,VWS V14.01,2013-10-16 15:00:00,
2013-10-16 11:10:00,61.8,59.2,30.03,ESE,112,0.0,2.0,91,0.00,,,0.00,VWS V14.01,2013-10-16 15:10:00,
2013-10-16 11:20:00,61.8,58.8,30.02,ESE,112,0.0,4.0,90,0.00,,,0.00,VWS V14.01,2013-10-16 15:20:00,
2013-10-16 11:30:00,61.8,59.2,30.02,ESE,112,0.0,1.0,91,0.00,,,0.00,VWS V14.01,2013-10-16 15:30:00,
2013-10-16 11:40:00,62.0,59.3,30.01,ESE,112,0.0,2.0,91,0.00,,,0.00,VWS V14.01,2013-10-16 15:40:00,
2013-10-16 11:50:00,61.8,59.2,30.01,ESE,112,0.0,4.0,91,0.00,,,0.00,VWS V14.01,2013-10-16 15:50:00,
2013-10-16 12:00:00,61.6,59.0,30.00,ESE,112,0.0,4.0,91,0.00,,,0.00,VWS V14.01,2013-10-16 16:00:00,
2013-10-16 12:10:00,62.0,59.3,30.00,ESE,112,0.0,1.0,91,0.00,,,0.00,VWS V14.01,2013-10-16 16:10:00,
2013-10-16 12:20:00,62.7,59.7,30.00,ESE,112,0.0,1.0,90,0.00,,,0.00,VWS V14.01,2013-10-16 16:20:00,
2013-10-16 12:30:00,62.9,59.9,30.00,SE,135,0.0,4.0,90,0.00,,,0.00,VWS V14.01,2013-10-16 16:30:00,
2013-10-16 12:40:00,62.7,59.7,30.00,SSE,158,0.0,5.0,90,0.00,,,0.00,VWS V14.01,2013-10-16 16:40:00,
2013-10-16 12:50:00,62.7,59.7,30.00,SSE,158,0.0,4.0,90,0.00,,,0.00,VWS V14.01,2013-10-16 16:50:00,
2013-10-16 13:00:00,62.9,59.9,29.99,East,90,0.0,2.0,90,0.00,,,0.00,VWS V14.01,2013-10-16 17:00:00,
2013-10-16 13:10:00,63.7,60.4,29.99,East,90,0.0,2.0,89,0.00,,,0.00,VWS V14.01,2013-10-16 17:10:00,
2013-10-16 13:20:00,64.0,60.7,29.99,ENE,68,0.0,3.0,89,0.00,,,0.00,VWS V14.01,2013-10-16 17:20:00,
2013-10-16 13:30:00,64.2,60.6,29.97,ENE,68,0.0,3.0,88,0.00,,,0.00,VWS V14.01,2013-10-16 17:30:00,
2013-10-16 13:40:00,65.3,61.0,29.97,East,90,0.0,1.0,86,0.00,,,0.00,VWS V14.01,2013-10-16 17:40:00,
2013-10-16 13:50:00,65.3,61.3,29.96,East,90,0.0,2.0,87,0.00,,,0.00,VWS V14.01,2013-10-16 17:50:00,
2013-10-16 14:00:00,66.1,61.1,29.96,East,90,0.0,2.0,84,0.00,,,0.00,VWS V14.01,2013-10-16 18:00:00,
2013-10-16 14:10:00,66.4,61.1,29.96,East,90,0.0,1.0,83,0.00,,,0.00,VWS V14.01,2013-10-16 18:10:00,
2013-10-16 14:20:00,66.1,61.1,29.96,East,90,0.0,1.0,84,0.00,,,0.00,VWS V14.01,2013-10-16 18:20:00,
2013-10-16 14:30:00,65.6,60.6,29.96,ESE,112,0.0,2.0,84,0.00,,,0.00,VWS V14.01,2013-10-16 18:30:00,
2013-10-16 14:40:00,65.3,60.3,29.96,ESE,112,0.0,4.0,84,0.00,,,0.00,VWS V14.01,2013-10-16 18:40:00,
2013-10-16 14:50:00,65.0,60.4,29.96,SE,135,0.0,2.0,85,0.00,,,0.00,VWS V14.01,2013-10-16 18:50:00,
2013-10-16 15:00:00,65.0,60.4,29.95,SE,135,0.0,1.0,85,0.00,,,0.00,VWS V14.01,2013-10-16 19:00:00,
2013-10-16 15:10:00,65.0,60.4,29.96,SE,135,0.0,1.0,85,0.00,,,0.00,VWS V14.01,2013-10-16 19:10:00,
2013-10-16 15:20:00,65.0,60.4,29.96,SE,135,0.0,1.0,85,0.00,,,0.00,VWS V14.01,2013-10-16 19:20:00,
2013-10-16 15:30:00,64.8,60.2,29.95,SE,135,0.0,0.0,85,0.00,,,0.00,VWS V14.01,2013-10-16 19:30:00,
2013-10-16 15:40:00,65.3,60.3,29.96,SE,135,0.0,1.0,84,0.00,,,0.00,VWS V14.01,2013-10-16 19:40:00,
2013-10-16 15:50:00,65.3,60.0,29.95,SE,135,0.0,1.0,83,0.00,,,0.00,VWS V14.01,2013-10-16 19:50:00,
2013-10-16 16:00:00,65.2,59.9,29.95,SE,135,0.0,0.0,83,0.00,,,0.00,VWS V14.01,2013-10-16 20:00:00,
2013-10-16 16:10:00,64.7,59.8,29.95,SE,135,0.0,0.0,84,0.00,,,0.00,VWS V14.01,2013-10-16 20:10:00,
2013-10-16 16:20:00,64.8,60.2,29.95,SE,135,0.0,0.0,85,0.00,,,0.00,VWS V14.01,2013-10-16 20:20:00,
2013-10-16 16:30:00,64.8,60.2,29.95,SE,135,0.0,0.0,85,0.00,,,0.00,VWS V14.01,2013-10-16 20:30:00,
2013-10-16 16:40:00,64.8,59.9,29.95,SE,135,0.0,0.0,84,0.00,,,0.00,VWS V14.01,2013-10-16 20:40:00,
2013-10-16 16:50:00,65.0,60.4,29.95,SE,135,0.0,0.0,85,0.00,,,0.00,VWS V14.01,2013-10-16 20:50:00,
2013-10-16 17:00:00,65.0,60.0,29.95,SE,135,0.0,0.0,84,0.00,,,0.00,VWS V14.01,2013-10-16 21:00:00,
2013-10-16 17:10:00,64.8,59.9,29.95,SE,135,0.0,0.0,84,0.00,,,0.00,VWS V14.01,2013-10-16 21:10:00,
2013-10-16 17:20:00,64.7,59.8,29.94,SE,135,0.0,0.0,84,0.00,,,0.00,VWS V14.01,2013-10-16 21:20:00,
2013-10-16 17:30:00,64.5,59.6,29.94,SE,135,0.0,0.0,84,0.00,,,0.00,VWS V14.01,2013-10-16 21:30:00,
2013-10-16 17:40:00,64.3,59.4,29.94,SE,135,0.0,0.0,84,0.00,,,0.00,VWS V14.01,2013-10-16 21:40:00,
2013-10-16 17:50:00,64.2,59.3,29.94,SE,135,0.0,0.0,84,0.00,,,0.00,VWS V14.01,2013-10-16 21:50:00,
2013-10-16 18:00:00,63.9,59.3,29.94,SE,135,0.0,0.0,85,0.00,,,0.00,VWS V14.01,2013-10-16 22:00:00,
2013-10-16 18:10:00,63.7,59.1,29.94,SE,135,0.0,0.0,85,0.00,,,0.00,VWS V14.01,2013-10-16 22:10:00,
2013-10-16 18:20:00,63.4,58.8,29.94,SE,135,0.0,0.0,85,0.00,,,0.00,VWS V14.01,2013-10-16 22:20:00,
2013-10-16 18:30:00,62.9,58.3,29.94,SE,135,0.0,0.0,85,0.00,,,0.00,VWS V14.01,2013-10-16 22:30:00,
2013-10-16 18:40:00,62.6,58.0,29.94,SE,135,0.0,0.0,85,0.00,,,0.00,VWS V14.01,2013-10-16 22:40:00,
2013-10-16 18:50:00,62.1,57.9,29.94,SE,135,0.0,0.0,86,0.00,,,0.00,VWS V14.01,2013-10-16 22:50:00,
2013-10-16 19:00:00,61.8,57.6,29.94,SE,135,0.0,0.0,86,0.00,,,0.00,VWS V14.01,2013-10-16 23:00:00,
2013-10-16 19:10:00,61.5,57.3,29.94,SE,135,0.0,0.0,86,0.00,,,0.00,VWS V14.01,2013-10-16 23:10:00,
2013-10-16 19:20:00,61.2,57.3,29.94,SE,135,0.0,0.0,87,0.00,,,0.00,VWS V14.01,2013-10-16 23:20:00,
2013-10-16 19:30:00,60.9,57.0,29.94,SE,135,0.0,0.0,87,0.00,,,0.00,VWS V14.01,2013-10-16 23:30:00,
2013-10-16 19:40:00,60.7,56.8,29.94,SE,135,0.0,0.0,87,0.00,,,0.00,VWS V14.01,2013-10-16 23:40:00,
2013-10-16 19:50:00,60.4,56.8,29.94,SE,135,0.0,0.0,88,0.00,,,0.00,VWS V14.01,2013-10-16 23:50:00,
2013-10-16 20:00:00,60.2,56.6,29.94,SE,135,0.0,0.0,88,0.00,,,0.00,VWS V14.01,2013-10-17 00:00:00,
2013-10-16 20:10:00,59.9,56.3,29.93,SE,135,0.0,0.0,88,0.00,,,0.00,VWS V14.01,2013-10-17 00:10:00,
2013-10-16 20:20:00,59.8,56.2,29.93,SE,135,0.0,0.0,88,0.00,,,0.00,VWS V14.01,2013-10-17 00:20:00,
2013-10-16 20:30:00,59.6,56.4,29.93,SE,135,0.0,0.0,89,0.00,,,0.00,VWS V14.01,2013-10-17 00:30:00,
2013-10-16 20:40:00,59.5,56.3,29.93,SE,135,0.0,0.0,89,0.00,,,0.00,VWS V14.01,2013-10-17 00:40:00,
2013-10-16 20:50:00,59.5,56.6,29.94,SE,135,0.0,0.0,90,0.00,,,0.00,VWS V14.01,2013-10-17 00:50:00,
2013-10-16 21:00:00,59.2,56.3,29.93,SE,135,0.0,0.0,90,0.00,,,0.00,VWS V14.01,2013-10-17 01:00:00,
2013-10-16 21:10:00,59.0,56.1,29.92,SE,135,0.0,0.0,90,0.00,,,0.00,VWS V14.01,2013-10-17 01:10:00,
2013-10-16 21:20:00,58.9,56.0,29.92,SE,135,0.0,0.0,90,0.00,,,0.00,VWS V14.01,2013-10-17 01:20:00,
2013-10-16 21:30:00,58.9,56.0,29.92,SE,135,0.0,0.0,90,0.00,,,0.00,VWS V14.01,2013-10-17 01:30:00,
2013-10-16 21:40:00,58.7,56.1,29.92,SE,135,0.0,0.0,91,0.00,,,0.00,VWS V14.01,2013-10-17 01:40:00,
2013-10-16 21:50:00,58.7,56.1,29.92,SE,135,0.0,0.0,91,0.00,,,0.00,VWS V14.01,2013-10-17 01:50:00,
2013-10-16 22:00:00,58.9,56.6,29.93,SE,135,0.0,0.0,92,0.00,,,0.00,VWS V14.01,2013-10-17 02:00:00,
2013-10-16 22:10:00,59.2,57.2,29.93,SE,135,0.0,0.0,93,0.00,,,0.00,VWS V14.01,2013-10-17 02:10:00,
2013-10-16 22:20:00,59.3,57.3,29.93,SE,135,0.0,0.0,93,0.00,,,0.00,VWS V14.01,2013-10-17 02:20:00,
2013-10-16 22:30:00,59.5,57.8,29.93,SE,135,0.0,0.0,94,0.00,,,0.00,VWS V14.01,2013-10-17 02:30:00,
2013-10-16 22:40:00,59.6,57.9,29.93,SE,135,0.0,0.0,94,0.00,,,0.00,VWS V14.01,2013-10-17 02:40:00,
2013-10-16 22:50:00,59.8,58.1,29.92,SE,135,0.0,0.0,94,0.00,,,0.00,VWS V14.01,2013-10-17 02:50:00,
2013-10-16 23:00:00,59.8,58.4,29.92,SE,135,0.0,0.0,95,0.00,,,0.00,VWS V14.01,2013-10-17 03:00:00,
2013-10-16 23:10:00,59.8,58.4,29.92,SE,135,0.0,0.0,95,0.00,,,0.00,VWS V14.01,2013-10-17 03:10:00,
2013-10-16 23:20:00,59.6,58.2,29.91,SE,135,0.0,0.0,95,0.00,,,0.00,VWS V14.01,2013-10-17 03:20:00,
2013-10-16 23:30:00,59.6,58.2,29.91,SE,135,0.0,0.0,95,0.00,,,0.00,VWS V14.01,2013-10-17 03:30:00,
2013-10-16 23:40:00,59.8,58.4,29.91,SE,135,0.0,0.0,95,0.00,,,0.00,VWS V14.01,2013-10-17 03:40:00,
2013-10-16 23:50:00,59.8,58.7,29.91,SE,135,0.0,0.0,96,0.00,,,0.00,VWS V14.01,2013-10-17 03:50:00,